As Olivia — DYQC — position and weather

sailwx.info

Track history (hours):
 
Tides and Currents Weather Stations Pressure Air Temp Water Temp Dewpoint Dewpoint Depression Visibility Wind Speed Wind Dir Waves Ship Positions

As Olivia

Last reported at 2015-Jan-27 04:32 UTC. Time now 2015-Feb-28 05:21 UTC.
Position N 36°29' E 014°13'.
Warning: this ship's position is 32 days out of date.

Length 146 m; draft 9.7 m.

Type: Ship (hazmat cat B). MMSI: 548767000.

Date/timePositionNaut miles runAvg speedWind from/ knotsBaromVisibWave heightAir tempDewpointWater temp
2015-Jan-27 04:32N 36°29' E 014°13'1713.7
2015-Jan-27 03:19N 36°33' E 013°53'  
2015-Jan-24 01:06N 36°01' W 005°11'916.0
2015-Jan-24 00:33N 35°58' W 005°21'  
2015-Jan-20 05:14N 38°22' W 010°10'1014.1
2015-Jan-20 04:31N 38°32' W 010°11'1414.6
2015-Jan-20 03:33N 38°46' W 010°12'  
2015-Jan-17 14:33N 50°22' W 000°46'1414.3
2015-Jan-17 13:33N 50°26' W 000°24'1514.3
2015-Jan-17 12:32N 50°31' W 000°03'1414.4
2015-Jan-17 11:33N 50°34' E 000°19'1414.3
2015-Jan-17 10:33N 50°39' E 000°40'1413.9
2015-Jan-17 09:33N 50°48' E 000°57'1313.2
2015-Jan-17 08:33N 50°57' E 001°13'1313.0
2015-Jan-17 07:33N 51°05' E 001°29'1414.5
2015-Jan-17 06:34N 51°15' E 001°46'1615.5
2015-Jan-17 05:34N 51°28' E 001°58'1615.8
2015-Jan-17 04:33N 51°40' E 002°15'  
Track history (hours):
 
Tides and Currents Weather Stations Pressure Air Temp Water Temp Dewpoint Dewpoint Depression Visibility Wind Speed Wind Dir Waves Ship Positions

As Olivia

Last reported at 2015-Jan-27 04:32 UTC. Time now 2015-Feb-28 05:21 UTC.
Position N 36°29' E 014°13'.
Warning: this ship's position is 32 days out of date.

Length 146 m; draft 9.7 m.

Type: Ship (hazmat cat B). MMSI: 548767000.

Date/timePositionNaut miles runAvg speedWind from/ knotsBaromVisibWave heightAir tempDewpointWater temp
2015-Jan-27 04:32N 36°29' E 014°13'1713.7
2015-Jan-27 03:19N 36°33' E 013°53'  
2015-Jan-24 01:06N 36°01' W 005°11'916.0
2015-Jan-24 00:33N 35°58' W 005°21'  
2015-Jan-20 05:14N 38°22' W 010°10'1014.1
2015-Jan-20 04:31N 38°32' W 010°11'1414.6
2015-Jan-20 03:33N 38°46' W 010°12'  
2015-Jan-17 14:33N 50°22' W 000°46'1414.3
2015-Jan-17 13:33N 50°26' W 000°24'1514.3
2015-Jan-17 12:32N 50°31' W 000°03'1414.4
2015-Jan-17 11:33N 50°34' E 000°19'1414.3
2015-Jan-17 10:33N 50°39' E 000°40'1413.9
2015-Jan-17 09:33N 50°48' E 000°57'1313.2
2015-Jan-17 08:33N 50°57' E 001°13'1313.0
2015-Jan-17 07:33N 51°05' E 001°29'1414.5
2015-Jan-17 06:34N 51°15' E 001°46'1615.5
2015-Jan-17 05:34N 51°28' E 001°58'1615.8
2015-Jan-17 04:33N 51°40' E 002°15'  

Dump ship's entire track history